Time;durP1;ratioP1;P1;durP2;ratioP2;P2;SDS_P1;SDS_P2;PMS_P1;PMS_P2;Temp;Humidity;BMP_temperature;BMP_pressure;BME280_temperature;BME280_humidity;BME280_pressure;Samples;Min_cycle;Max_cycle;Signal;HPM_P1;HPM_P2
2021/01/18 00:00:34;;;;;;;13.25;4.10;;;6.70;84.70;;;;;;4867249;29;20041;-85
2021/01/18 00:03:02;;;;;;;9.93;4.13;;;6.70;84.70;;;;;;4897480;29;20051;-87
2021/01/18 00:05:27;;;;;;;15.40;3.90;;;6.70;84.60;;;;;;4865200;29;20044;-86
2021/01/18 00:07:53;;;;;;;12.50;4.22;;;6.70;84.50;;;;;;4876549;29;20517;-87
2021/01/18 00:10:21;;;;;;;14.05;4.55;;;6.70;84.60;;;;;;4877205;29;20517;-86
2021/01/18 00:12:49;;;;;;;13.02;4.63;;;6.70;84.60;;;;;;4897063;29;20390;-86
2021/01/18 00:15:17;;;;;;;8.10;4.10;;;6.70;84.50;;;;;;4896660;29;20029;-87
2021/01/18 00:17:43;;;;;;;12.15;4.50;;;6.60;84.40;;;;;;4888467;29;20048;-87
2021/01/18 00:20:10;;;;;;;11.68;4.38;;;6.70;84.50;;;;;;4898841;29;20035;-87
2021/01/18 00:22:37;;;;;;;10.73;3.97;;;6.70;84.50;;;;;;4894082;29;20044;-87
2021/01/18 00:25:12;;;;;;;18.13;4.63;;;6.70;84.40;;;;;;4915264;29;20048;-87
2021/01/18 00:27:38;;;;;;;10.07;4.60;;;6.70;84.30;;;;;;4887412;29;20100;-87
2021/01/18 00:30:18;;;;;;;13.38;5.05;;;6.60;84.20;;;;;;4896588;29;20040;-87
2021/01/18 00:32:44;;;;;;;14.80;5.03;;;6.70;84.30;;;;;;4891514;29;20367;-87
2021/01/18 00:35:11;;;;;;;13.13;4.97;;;6.70;84.30;;;;;;4897146;29;20043;-87
2021/01/18 00:37:48;;;;;;;12.98;5.25;;;6.70;84.30;;;;;;4882313;29;20518;-87
2021/01/18 00:40:16;;;;;;;12.07;5.35;;;6.70;84.30;;;;;;4885333;29;20467;-87
2021/01/18 00:42:43;;;;;;;8.77;4.43;;;6.60;84.20;;;;;;4896657;29;20036;-87
2021/01/18 00:45:11;;;;;;;8.57;4.97;;;6.60;84.20;;;;;;4892596;29;20451;-86
2021/01/18 00:47:44;;;;;;;9.88;4.72;;;6.70;84.20;;;;;;4898637;29;20131;-87
2021/01/18 00:50:12;;;;;;;8.15;4.95;;;6.70;84.10;;;;;;4882711;29;20092;-87
2021/01/18 00:52:42;;;;;;;12.65;5.68;;;6.70;84.10;;;;;;4902026;29;20471;-86
2021/01/18 00:55:11;;;;;;;11.32;5.80;;;6.70;84.10;;;;;;4896566;29;20467;-86
2021/01/18 00:57:37;;;;;;;;;;;6.70;84.00;;;;;;4864840;29;20077;-87
2021/01/18 01:00:07;;;;;;;13.98;6.25;;;6.70;84.00;;;;;;4884930;29;20389;-89
2021/01/18 01:02:32;;;;;;;11.80;6.80;;;6.70;84.00;;;;;;4884315;29;20052;-89
2021/01/18 01:04:58;;;;;;;16.13;9.00;;;6.70;84.00;;;;;;4880406;29;20103;-89
2021/01/18 01:07:24;;;;;;;16.73;8.93;;;6.70;84.00;;;;;;4865402;29;20098;-87
2021/01/18 01:09:49;;;;;;;12.52;7.78;;;6.70;84.00;;;;;;4864490;29;20061;-89
2021/01/18 01:12:20;;;;;;;15.90;9.25;;;6.70;84.00;;;;;;4879672;29;20059;-88
2021/01/18 01:14:45;;;;;;;15.43;8.98;;;6.70;84.00;;;;;;4880145;29;20558;-89
2021/01/18 01:17:11;;;;;;;13.75;7.65;;;6.70;84.00;;;;;;4877687;29;20176;-89
2021/01/18 01:19:37;;;;;;;15.38;8.85;;;6.70;83.90;;;;;;4898531;29;20398;-88
2021/01/18 01:22:02;;;;;;;15.90;9.20;;;6.70;83.90;;;;;;4885206;29;20052;-89
2021/01/18 01:24:28;;;;;;;14.90;9.18;;;6.70;83.90;;;;;;4918926;29;20044;-89
2021/01/18 01:26:53;;;;;;;17.88;9.15;;;6.70;83.80;;;;;;4870937;29;20487;-89
2021/01/18 01:29:19;;;;;;;13.95;8.48;;;6.70;83.80;;;;;;4886284;29;20040;-89
2021/01/18 01:31:45;;;;;;;17.60;10.05;;;6.70;83.80;;;;;;4873612;29;20051;-88
2021/01/18 01:34:11;;;;;;;17.73;10.63;;;6.70;83.70;;;;;;4877274;29;20044;-87
2021/01/18 01:36:44;;;;;;;19.48;10.80;;;6.70;83.70;;;;;;4886208;29;20104;-87
2021/01/18 01:39:09;;;;;;;17.92;11.40;;;6.70;83.80;;;;;;4900099;29;20120;-87
2021/01/18 01:41:36;;;;;;;17.38;11.10;;;6.60;83.70;;;;;;4901017;29;20134;-87
2021/01/18 01:44:02;;;;;;;17.25;10.40;;;6.70;83.80;;;;;;4901778;29;20103;-87
2021/01/18 01:46:28;;;;;;;16.75;9.70;;;6.70;83.80;;;;;;4916720;29;20550;-87
2021/01/18 01:48:54;;;;;;;16.27;10.30;;;6.70;83.80;;;;;;4886016;29;20063;-87
2021/01/18 01:51:23;;;;;;;15.60;9.55;;;6.60;83.70;;;;;;4906755;29;20043;-87
2021/01/18 01:53:49;;;;;;;17.02;10.02;;;6.60;83.70;;;;;;4882713;29;20040;-87
2021/01/18 01:56:15;;;;;;;14.10;8.95;;;6.60;83.70;;;;;;4898191;29;20049;-87
2021/01/18 01:58:42;;;;;;;17.83;10.85;;;6.60;83.70;;;;;;4883184;29;20045;-87
2021/01/18 02:01:08;;;;;;;18.25;10.35;;;6.60;83.70;;;;;;4884123;29;20040;-87
2021/01/18 02:03:45;;;;;;;15.60;9.52;;;6.60;83.70;;;;;;4856099;29;20044;-87
2021/01/18 02:06:11;;;;;;;17.58;10.85;;;6.60;83.70;;;;;;4900945;29;20036;-87
2021/01/18 02:11:09;;;;;;;12.43;9.15;;;6.60;83.60;;;;;;4914624;29;20056;-86
2021/01/18 02:13:53;;;;;;;14.98;8.63;;;6.60;83.60;;;;;;4900721;29;20118;-86
2021/01/18 02:16:44;;;;;;;12.18;7.40;;;6.60;83.50;;;;;;4917743;29;20043;-86
2021/01/18 02:19:47;;;;;;;12.13;7.55;;;6.60;83.50;;;;;;4901082;29;20037;-86
2021/01/18 02:22:34;;;;;;;13.15;7.90;;;6.60;83.40;;;;;;4904557;29;20055;-86
2021/01/18 02:25:09;;;;;;;10.63;6.95;;;6.60;83.40;;;;;;4899447;29;20112;-86
2021/01/18 02:27:56;;;;;;;12.50;8.10;;;6.60;83.40;;;;;;4906013;29;20066;-86
2021/01/18 02:30:48;;;;;;;13.10;8.38;;;6.50;83.30;;;;;;4917418;29;20487;-86
2021/01/18 02:33:48;;;;;;;12.73;7.75;;;6.50;83.30;;;;;;4896362;29;20040;-86
2021/01/18 02:36:26;;;;;;;12.13;7.97;;;6.50;83.20;;;;;;4882264;29;20043;-89
2021/01/18 02:39:07;;;;;;;9.85;6.63;;;6.50;83.20;;;;;;4886259;29;20387;-87
2021/01/18 02:41:48;;;;;;;12.15;7.88;;;6.50;83.20;;;;;;4915886;29;20032;-87
2021/01/18 02:44:17;;;;;;;10.80;7.70;;;6.50;83.20;;;;;;4900910;29;20035;-87
2021/01/18 02:46:45;;;;;;;12.10;8.02;;;6.50;83.20;;;;;;4915371;29;20043;-86
2021/01/18 02:49:12;;;;;;;13.73;7.68;;;6.50;83.20;;;;;;4898651;29;20052;-86
2021/01/18 02:51:43;;;;;;;13.75;8.02;;;6.50;83.20;;;;;;4898164;29;20037;-87
2021/01/18 02:54:09;;;;;;;14.75;8.82;;;6.50;83.20;;;;;;4882713;29;20487;-87
2021/01/18 02:56:35;;;;;;;10.27;7.60;;;6.50;83.20;;;;;;4850655;29;20044;-87
2021/01/18 02:59:02;;;;;;;13.85;8.57;;;6.50;83.20;;;;;;4881641;29;20095;-87
2021/01/18 03:01:45;;;;;;;13.07;8.80;;;6.50;83.20;;;;;;4906779;29;20032;-87
2021/01/18 03:04:24;;;;;;;12.63;8.63;;;6.50;83.10;;;;;;4917381;29;20032;-87
2021/01/18 03:07:05;;;;;;;18.10;9.45;;;6.50;83.10;;;;;;4889260;29;20033;-87
2021/01/18 03:09:48;;;;;;;12.60;7.85;;;6.40;83.10;;;;;;4881004;29;20195;-87
2021/01/18 03:12:20;;;;;;;12.07;7.55;;;6.40;83.10;;;;;;4894959;29;20075;-87
2021/01/18 03:14:48;;;;;;;14.05;7.95;;;6.40;83.10;;;;;;4900134;29;20047;-86
2021/01/18 03:17:19;;;;;;;11.20;7.53;;;6.40;83.10;;;;;;4895115;29;20077;-87
2021/01/18 03:19:45;;;;;;;13.13;7.93;;;6.40;83.10;;;;;;4900285;29;20043;-86
2021/01/18 03:22:24;;;;;;;12.35;7.63;;;6.40;83.10;;;;;;4868948;29;20045;-86
2021/01/18 03:24:50;;;;;;;15.02;7.82;;;6.40;83.10;;;;;;4897010;29;20041;-86
2021/01/18 03:27:16;;;;;;;16.27;8.30;;;6.40;83.10;;;;;;4887649;29;20047;-87
2021/01/18 03:29:42;;;;;;;16.77;8.50;;;6.40;83.10;;;;;;4875183;29;20040;-86
2021/01/18 03:32:09;;;;;;;18.25;8.45;;;6.40;83.10;;;;;;4910780;29;20041;-90
2021/01/18 03:34:38;;;;;;;14.60;8.10;;;6.30;83.00;;;;;;4884529;29;20480;-90
2021/01/18 03:37:03;;;;;;;14.95;8.27;;;6.30;83.00;;;;;;4895956;29;20402;-90
2021/01/18 03:39:30;;;;;;;13.23;8.18;;;6.30;83.00;;;;;;4850635;29;20049;-90
2021/01/18 03:41:56;;;;;;;15.27;8.52;;;6.30;83.10;;;;;;4882402;29;20056;-90
2021/01/18 03:44:22;;;;;;;16.20;8.95;;;6.30;83.10;;;;;;4865333;29;20048;-90
2021/01/18 03:46:47;;;;;;;16.80;8.65;;;6.30;83.10;;;;;;4890478;29;20044;-90
2021/01/18 03:49:13;;;;;;;11.23;7.43;;;6.30;83.20;;;;;;4869067;29;20092;-90
2021/01/18 03:51:39;;;;;;;16.00;8.35;;;6.20;83.70;;;;;;4894746;29;20139;-90
2021/01/18 03:54:06;;;;;;;14.75;8.82;;;6.20;83.10;;;;;;4893293;29;20571;-89
2021/01/18 03:56:41;;;;;;;12.95;7.53;;;6.20;83.20;;;;;;4916661;29;20072;-90
2021/01/18 03:59:07;;;;;;;16.63;8.20;;;6.30;83.20;;;;;;4881337;29;20096;-90
2021/01/18 04:01:37;;;;;;;15.65;8.73;;;6.20;83.20;;;;;;4897355;29;20044;-91
2021/01/18 04:04:03;;;;;;;17.40;8.95;;;6.20;83.20;;;;;;4880834;29;20064;-87
2021/01/18 04:06:34;;;;;;;12.68;7.90;;;6.20;83.30;;;;;;4849597;29;20041;-87
2021/01/18 04:08:59;;;;;;;18.60;8.50;;;6.20;83.90;;;;;;4865213;29;20049;-87
2021/01/18 04:11:26;;;;;;;13.00;7.75;;;6.20;83.30;;;;;;4865213;29;20498;-87
2021/01/18 04:13:52;;;;;;;12.82;7.60;;;6.20;83.30;;;;;;4880569;29;20064;-87
2021/01/18 04:16:17;;;;;;;16.70;8.38;;;6.20;83.30;;;;;;4880532;29;20071;-87
2021/01/18 04:18:43;;;;;;;13.43;7.38;;;6.20;83.90;;;;;;4880456;29;20047;-87
2021/01/18 04:21:09;;;;;;;14.50;7.93;;;6.20;83.30;;;;;;4883813;29;20107;-87
2021/01/18 04:23:34;;;;;;;13.30;8.07;;;6.20;83.30;;;;;;4892561;29;20050;-87
2021/01/18 04:26:00;;;;;;;12.23;7.78;;;6.20;83.30;;;;;;4911843;29;20045;-90
2021/01/18 04:28:25;;;;;;;15.98;8.45;;;6.20;83.30;;;;;;4865543;29;20050;-90
2021/01/18 04:30:51;;;;;;;15.07;7.75;;;6.20;83.30;;;;;;4865524;29;20052;-89
2021/01/18 04:33:16;;;;;;;14.52;8.30;;;6.20;83.50;;;;;;4897280;29;20380;-90
2021/01/18 04:35:42;;;;;;;17.67;8.27;;;6.20;83.40;;;;;;4880203;29;20040;-90
2021/01/18 04:38:08;;;;;;;13.60;7.80;;;6.10;83.30;;;;;;4880856;29;20554;-90
2021/01/18 04:40:34;;;;;;;14.68;7.30;;;6.20;83.40;;;;;;4912502;29;20102;-90
2021/01/18 04:43:00;;;;;;;15.13;8.40;;;6.20;83.40;;;;;;4898833;29;20044;-90
2021/01/18 04:45:28;;;;;;;17.10;8.30;;;6.20;83.40;;;;;;4891746;29;20043;-89
2021/01/18 04:47:55;;;;;;;12.63;7.45;;;6.20;83.40;;;;;;4880376;29;20180;-89
2021/01/18 04:50:23;;;;;;;11.52;7.57;;;6.20;83.30;;;;;;4897323;29;20036;-90
2021/01/18 04:52:54;;;;;;;14.57;7.25;;;6.20;83.30;;;;;;4883427;29;20043;-89
2021/01/18 04:55:30;;;;;;;15.75;8.25;;;6.20;83.30;;;;;;4910736;29;20044;-90
2021/01/18 04:58:04;;;;;;;13.30;7.75;;;6.10;83.20;;;;;;4885635;29;20052;-89
2021/01/18 05:00:43;;;;;;;12.88;7.22;;;6.10;83.20;;;;;;4886697;29;20029;-90
2021/01/18 05:03:11;;;;;;;17.63;8.98;;;6.10;83.10;;;;;;4890866;29;20063;-90
2021/01/18 05:06:05;;;;;;;14.23;7.78;;;6.10;83.10;;;;;;4892814;29;20044;-90
2021/01/18 05:09:09;;;;;;;13.75;7.68;;;6.10;83.20;;;;;;4879137;29;20168;-90
2021/01/18 05:11:35;;;;;;;11.93;7.10;;;6.10;83.10;;;;;;4886740;29;20486;-90
2021/01/18 05:14:04;;;;;;;11.48;6.80;;;6.00;83.10;;;;;;4893552;29;20047;-90
2021/01/18 05:16:36;;;;;;;13.65;8.07;;;6.10;83.10;;;;;;4868437;29;20036;-90
2021/01/18 05:19:08;;;;;;;12.32;7.63;;;6.10;83.10;;;;;;4884150;29;20161;-90
2021/01/18 05:21:37;;;;;;;12.43;7.70;;;6.00;83.00;;;;;;4883811;29;20134;-90
2021/01/18 05:24:03;;;;;;;14.13;8.50;;;6.10;83.10;;;;;;4896398;29;20044;-90
2021/01/18 05:26:29;;;;;;;15.60;8.10;;;6.00;83.00;;;;;;4886408;29;20076;-89
2021/01/18 05:28:56;;;;;;;12.77;7.25;;;6.00;83.00;;;;;;4871275;29;20051;-89
2021/01/18 05:31:28;;;;;;;13.33;8.03;;;6.00;83.00;;;;;;4879475;29;20354;-89
2021/01/18 05:34:04;;;;;;;15.18;8.48;;;6.00;83.00;;;;;;4894528;29;20084;-89
2021/01/18 05:36:42;;;;;;;15.95;9.07;;;6.00;83.00;;;;;;4897298;29;20040;-89
2021/01/18 05:39:20;;;;;;;;;;;6.00;83.10;;;;;;4919841;29;20040;-89
2021/01/18 05:41:50;;;;;;;16.83;8.40;;;6.00;83.00;;;;;;4889278;29;20342;-89
2021/01/18 05:44:17;;;;;;;17.95;8.73;;;5.90;83.10;;;;;;4883458;29;20033;-88
2021/01/18 05:46:45;;;;;;;16.27;8.68;;;5.90;83.10;;;;;;4899847;29;20037;-89
2021/01/18 05:49:18;;;;;;;16.88;9.65;;;5.90;83.10;;;;;;4868152;29;20052;-89
2021/01/18 05:51:51;;;;;;;21.08;10.32;;;5.90;83.20;;;;;;4899672;29;20041;-89
2021/01/18 05:54:25;;;;;;;18.45;10.32;;;5.90;83.80;;;;;;4899952;29;20044;-88
2021/01/18 05:56:55;;;;;;;16.48;9.57;;;5.90;83.30;;;;;;4898216;29;20487;-88
2021/01/18 05:59:22;;;;;;;15.45;10.05;;;5.80;83.20;;;;;;4883056;29;20062;-89
2021/01/18 06:01:50;;;;;;;16.23;9.70;;;5.80;83.20;;;;;;4883886;29;20046;-89
2021/01/18 06:04:18;;;;;;;15.00;10.18;;;5.80;83.30;;;;;;4868809;29;20040;-89
2021/01/18 06:06:59;;;;;;;18.48;9.98;;;5.80;83.40;;;;;;4899083;29;20526;-89
2021/01/18 06:09:45;;;;;;;20.33;9.70;;;5.80;83.40;;;;;;4883046;29;20200;-88
2021/01/18 06:12:22;;;;;;;14.25;9.32;;;5.80;83.40;;;;;;4882987;29;20124;-89
2021/01/18 06:15:08;;;;;;;17.67;10.07;;;5.80;83.40;;;;;;4883273;29;20052;-88
2021/01/18 06:17:36;;;;;;;12.43;8.95;;;5.80;83.30;;;;;;4883490;29;20033;-89
2021/01/18 06:20:03;;;;;;;15.48;8.73;;;5.70;83.30;;;;;;4900183;29;20029;-87
2021/01/18 06:22:29;;;;;;;19.45;9.27;;;5.70;83.20;;;;;;4888381;29;20499;-88
2021/01/18 06:24:56;;;;;;;18.35;9.95;;;5.80;83.30;;;;;;4882322;29;20136;-90
2021/01/18 06:27:34;;;;;;;16.45;9.02;;;5.70;83.30;;;;;;4883386;29;20058;-89
2021/01/18 06:30:00;;;;;;;15.63;9.10;;;5.70;83.30;;;;;;4868175;29;20116;-89
2021/01/18 06:32:30;;;;;;;17.33;8.48;;;5.70;83.30;;;;;;4871680;29;20131;-89
2021/01/18 06:35:00;;;;;;;15.00;8.70;;;5.70;83.20;;;;;;4901893;29;20040;-89
2021/01/18 06:37:32;;;;;;;14.30;8.43;;;5.70;83.20;;;;;;4887041;29;20375;-89
2021/01/18 06:40:03;;;;;;;16.77;9.73;;;5.70;83.20;;;;;;4885291;29;20515;-90
2021/01/18 06:42:29;;;;;;;18.92;9.60;;;5.70;83.10;;;;;;4867052;29;20403;-90
2021/01/18 06:44:55;;;;;;;18.52;10.50;;;5.70;83.10;;;;;;4881940;29;20368;-90
2021/01/18 06:47:29;;;;;;;17.10;8.60;;;5.70;83.10;;;;;;4867000;29;20115;-90
2021/01/18 06:50:00;;;;;;;16.40;9.57;;;5.70;83.20;;;;;;4882128;29;20402;-90
2021/01/18 06:52:31;;;;;;;18.15;10.05;;;5.60;83.10;;;;;;4880625;29;20041;-90
2021/01/18 06:55:10;;;;;;;16.08;9.10;;;5.70;83.80;;;;;;4880063;29;20397;-90
2021/01/18 06:58:07;;;;;;;19.08;10.00;;;5.70;83.20;;;;;;4880528;29;20743;-91
2021/01/18 07:00:40;;;;;;;21.30;10.68;;;5.70;83.20;;;;;;4881847;29;20037;-90
2021/01/18 07:03:20;;;;;;;18.23;9.70;;;5.60;83.10;;;;;;4881799;29;20047;-90
2021/01/18 07:05:47;;;;;;;16.45;10.02;;;5.60;83.20;;;;;;4903229;29;20048;-91
2021/01/18 07:08:18;;;;;;;16.75;10.77;;;5.60;83.20;;;;;;4917185;29;20134;-90
2021/01/18 07:10:49;;;;;;;14.00;9.25;;;5.60;83.20;;;;;;4898664;29;20079;-90
2021/01/18 07:13:18;;;;;;;17.33;10.07;;;5.60;83.30;;;;;;4898960;29;20032;-90
2021/01/18 07:15:43;;;;;;;19.70;10.15;;;5.60;83.30;;;;;;4863870;29;20055;-90
2021/01/18 07:18:12;;;;;;;15.23;8.93;;;5.60;83.30;;;;;;4905812;29;20036;-89
2021/01/18 07:20:46;;;;;;;19.25;9.70;;;5.60;83.30;;;;;;4880293;29;20037;-89
2021/01/18 07:23:14;;;;;;;20.23;10.30;;;5.60;83.30;;;;;;4889825;29;20047;-89
2021/01/18 07:25:46;;;;;;;18.95;10.60;;;5.60;83.30;;;;;;4895008;29;20541;-90
2021/01/18 07:28:19;;;;;;;19.00;10.07;;;5.60;83.30;;;;;;4881806;29;20406;-89
2021/01/18 07:30:45;;;;;;;17.38;10.15;;;5.60;83.30;;;;;;4868445;29;20135;-88
2021/01/18 07:33:13;;;;;;;19.15;11.05;;;5.50;83.20;;;;;;4884306;29;20051;-90
2021/01/18 07:35:40;;;;;;;18.63;10.32;;;5.50;83.20;;;;;;4877242;29;20506;-92
2021/01/18 07:38:14;;;;;;;15.52;9.93;;;5.50;83.20;;;;;;4885623;29;20045;-89
2021/01/18 07:40:41;;;;;;;19.33;10.77;;;5.50;83.20;;;;;;4871041;29;20041;-89
2021/01/18 07:43:09;;;;;;;18.40;10.88;;;5.50;83.30;;;;;;4866453;29;20047;-93
2021/01/18 07:45:34;;;;;;;20.25;10.20;;;5.50;83.20;;;;;;4871345;29;20040;-92
2021/01/18 07:48:00;;;;;;;19.40;10.40;;;5.50;83.30;;;;;;4871466;29;20040;-92
2021/01/18 07:50:34;;;;;;;17.20;10.25;;;5.40;83.20;;;;;;4889352;29;20047;-93
2021/01/18 07:53:08;;;;;;;20.80;11.38;;;5.50;83.20;;;;;;4886515;29;20044;-94
2021/01/18 07:55:35;;;;;;;18.13;10.23;;;5.40;83.20;;;;;;4917276;29;20075;-93
2021/01/18 07:58:18;;;;;;;22.00;10.95;;;5.40;83.20;;;;;;4885650;29;20039;-94
2021/01/18 08:00:45;;;;;;;18.15;10.10;;;5.40;83.20;;;;;;4883412;29;20040;-93
2021/01/18 08:03:10;;;;;;;21.52;11.30;;;5.40;83.20;;;;;;4882179;29;20043;-93
2021/01/18 08:05:38;;;;;;;19.35;10.63;;;5.40;83.20;;;;;;4881909;29;20040;-93
2021/01/18 08:08:16;;;;;;;19.08;10.93;;;5.40;83.20;;;;;;4881770;29;20048;-92
2021/01/18 08:11:00;;;;;;;22.50;11.02;;;5.40;83.20;;;;;;4902591;23;20056;-89
2021/01/18 08:13:49;;;;;;;21.15;11.30;;;5.40;83.30;;;;;;4918157;29;20370;-89
2021/01/18 08:16:24;;;;;;;17.27;9.88;;;5.30;83.30;;;;;;4914225;29;20048;-90
2021/01/18 08:18:54;;;;;;;18.98;10.07;;;5.30;83.30;;;;;;4918141;29;20032;-90
2021/01/18 08:21:39;;;;;;;19.55;10.02;;;5.30;83.30;;;;;;4918513;29;20178;-90
2021/01/18 08:24:12;;;;;;;20.45;9.93;;;5.30;83.30;;;;;;4902756;29;20036;-90
2021/01/18 08:26:53;;;;;;;16.90;9.05;;;5.30;83.20;;;;;;4916878;29;20039;-90
2021/01/18 08:29:40;;;;;;;19.40;9.93;;;5.30;83.30;;;;;;4935442;29;20032;-89
2021/01/18 08:32:24;;;;;;;23.48;10.88;;;5.40;83.30;;;;;;4926345;29;20111;-90
2021/01/18 08:34:55;;;;;;;20.05;10.50;;;5.40;83.30;;;;;;4915178;29;20384;-90
2021/01/18 08:37:21;;;;;;;22.13;11.50;;;5.40;83.30;;;;;;4909593;29;20570;-88
2021/01/18 08:39:52;;;;;;;23.02;11.93;;;5.40;83.40;;;;;;4908340;29;20047;-89
2021/01/18 08:42:25;;;;;;;23.15;11.48;;;5.40;83.50;;;;;;4927592;29;20040;-89
2021/01/18 08:45:03;;;;;;;19.23;10.07;;;5.40;83.50;;;;;;4917360;29;20043;-88
2021/01/18 08:47:52;;;;;;;21.90;11.13;;;5.40;84.20;;;;;;4924868;29;20040;-86
2021/01/18 08:50:39;;;;;;;20.73;10.93;;;5.40;83.60;;;;;;4934716;29;20042;-89
2021/01/18 08:53:27;;;;;;;23.35;10.75;;;5.40;83.70;;;;;;4905633;29;20044;-89
2021/01/18 08:55:54;;;;;;;21.85;11.63;;;5.40;83.80;;;;;;4898845;29;20067;-89
2021/01/18 08:58:37;;;;;;;22.92;11.38;;;5.40;83.80;;;;;;4899366;29;20043;-90
2021/01/18 09:01:14;;;;;;;25.50;11.25;;;5.40;83.90;;;;;;4898723;29;20071;-89
2021/01/18 09:03:40;;;;;;;24.42;11.57;;;5.40;83.80;;;;;;4900030;29;20478;-89
2021/01/18 09:06:06;;;;;;;23.08;10.98;;;5.40;83.80;;;;;;4892644;29;20048;-90
2021/01/18 09:08:32;;;;;;;19.17;10.18;;;5.40;83.90;;;;;;4901630;29;20403;-90
2021/01/18 09:11:01;;;;;;;20.42;11.02;;;5.40;83.90;;;;;;4885107;29;20060;-89
2021/01/18 09:13:27;;;;;;;;;;;5.40;83.90;;;;;;4905604;29;20044;-89
2021/01/18 09:15:55;;;;;;;21.98;10.45;;;5.40;83.90;;;;;;4935239;29;19938;-89
2021/01/18 09:18:22;;;;;;;22.75;10.18;;;5.50;84.00;;;;;;4918207;29;20182;-90
2021/01/18 09:20:49;;;;;;;21.33;9.65;;;5.50;84.00;;;;;;4918013;29;20043;-90
2021/01/18 09:23:16;;;;;;;24.92;11.00;;;5.50;84.10;;;;;;4898682;29;20143;-90
2021/01/18 09:25:42;;;;;;;21.08;9.93;;;5.50;84.10;;;;;;4899535;29;20071;-89
2021/01/18 09:28:16;;;;;;;25.13;11.50;;;5.60;84.20;;;;;;4898890;29;20479;-90
2021/01/18 09:30:44;;;;;;;19.85;8.60;;;5.60;84.20;;;;;;4909228;29;20123;-90
2021/01/18 09:33:12;;;;;;;24.85;9.65;;;5.60;84.10;;;;;;4901939;29;20044;-89
2021/01/18 09:35:43;;;;;;;19.73;9.20;;;5.70;84.00;;;;;;4917747;29;20153;-89
2021/01/18 09:38:11;;;;;;;21.95;10.05;;;5.70;84.00;;;;;;4897833;29;20758;-89
2021/01/18 09:40:39;;;;;;;25.40;10.32;;;5.70;84.00;;;;;;4916326;29;20040;-90
2021/01/18 09:43:06;;;;;;;25.25;12.20;;;5.80;84.10;;;;;;4917333;29;20415;-90
2021/01/18 09:45:33;;;;;;;26.08;13.55;;;5.80;84.10;;;;;;4898831;29;20047;-89
2021/01/18 09:48:09;;;;;;;23.35;12.07;;;5.80;84.00;;;;;;4928170;29;20509;-89
2021/01/18 09:50:36;;;;;;;26.30;12.65;;;5.80;84.00;;;;;;4887721;29;20538;-89
2021/01/18 09:53:07;;;;;;;20.33;10.82;;;5.90;84.00;;;;;;4899077;29;20040;-89
2021/01/18 09:55:37;;;;;;;20.33;10.23;;;5.90;84.00;;;;;;4919947;29;20099;-89
2021/01/18 09:58:09;;;;;;;26.17;9.85;;;5.90;84.00;;;;;;4902931;29;20482;-89
2021/01/18 10:00:37;;;;;;;23.25;9.73;;;6.00;84.00;;;;;;4919992;29;20068;-90
2021/01/18 10:03:03;;;;;;;22.52;9.65;;;6.00;83.90;;;;;;4903033;29;20043;-90
2021/01/18 10:05:48;;;;;;;27.35;10.05;;;6.00;83.90;;;;;;4921805;29;20144;-89
2021/01/18 10:08:21;;;;;;;21.85;9.57;;;6.10;84.10;;;;;;4890036;29;20040;-89
2021/01/18 10:10:49;;;;;;;24.20;10.80;;;6.10;84.00;;;;;;4905177;29;20512;-89
2021/01/18 10:13:17;;;;;;;24.85;9.70;;;6.20;84.60;;;;;;4918293;29;20173;-90
2021/01/18 10:15:45;;;;;;;26.83;9.80;;;6.20;84.00;;;;;;4914312;29;20036;-90
2021/01/18 10:18:41;;;;;;;20.75;8.60;;;6.20;84.60;;;;;;4907083;29;20282;-90
2021/01/18 10:21:08;;;;;;;15.98;7.78;;;6.20;83.90;;;;;;4907254;29;20100;-89
2021/01/18 10:23:46;;;;;;;16.20;8.25;;;6.30;83.80;;;;;;4880540;29;20051;-88
2021/01/18 10:26:24;;;;;;;15.70;8.40;;;6.30;83.90;;;;;;4919143;29;20090;-89
2021/01/18 10:28:54;;;;;;;20.60;8.55;;;6.30;83.90;;;;;;4938370;29;20027;-89
2021/01/18 10:31:25;;;;;;;13.57;7.38;;;6.40;83.90;;;;;;4935657;29;20067;-89
2021/01/18 10:34:14;;;;;;;18.90;8.48;;;6.40;83.80;;;;;;4902649;29;20043;-89
2021/01/18 10:36:41;;;;;;;16.40;7.90;;;6.50;83.70;;;;;;4919428;29;20032;-88
2021/01/18 10:39:07;;;;;;;13.52;7.22;;;6.50;83.70;;;;;;4903989;29;20039;-88
2021/01/18 10:41:34;;;;;;;17.33;8.07;;;6.50;83.70;;;;;;4898511;29;20036;-89
2021/01/18 10:44:06;;;;;;;15.38;7.20;;;6.50;83.60;;;;;;4890006;29;20047;-89
2021/01/18 10:46:33;;;;;;;14.32;7.30;;;6.50;83.60;;;;;;4937887;29;20031;-88
2021/01/18 10:49:00;;;;;;;22.05;7.63;;;6.60;83.60;;;;;;4889652;29;20039;-91
2021/01/18 10:51:29;;;;;;;17.70;7.68;;;6.60;83.50;;;;;;4920301;29;20094;-89
2021/01/18 10:53:57;;;;;;;17.38;7.18;;;6.60;83.50;;;;;;4918605;29;20051;-89
2021/01/18 10:56:33;;;;;;;18.77;8.25;;;6.60;83.40;;;;;;4920611;29;20067;-90
2021/01/18 10:59:00;;;;;;;15.52;7.72;;;6.60;83.40;;;;;;4921002;29;20063;-89
2021/01/18 11:01:26;;;;;;;20.58;7.68;;;6.70;83.40;;;;;;4920706;29;20122;-89
2021/01/18 11:03:52;;;;;;;19.63;8.82;;;6.70;83.50;;;;;;4906923;29;20036;-90
2021/01/18 11:06:20;;;;;;;14.63;7.43;;;6.70;83.50;;;;;;4917516;29;20067;-90
2021/01/18 11:08:53;;;;;;;17.50;8.10;;;6.70;83.50;;;;;;4905431;29;20134;-89
2021/01/18 11:11:27;;;;;;;23.08;8.55;;;6.70;83.40;;;;;;4937338;29;20593;-89
2021/01/18 11:14:01;;;;;;;15.30;7.32;;;6.80;83.50;;;;;;4921285;29;20060;-89
2021/01/18 11:16:27;;;;;;;21.38;8.07;;;6.80;83.40;;;;;;4929669;29;20111;-90
2021/01/18 11:19:02;;;;;;;18.75;7.22;;;6.80;83.30;;;;;;4901992;29;20722;-89
2021/01/18 11:21:27;;;;;;;19.55;7.53;;;6.80;83.30;;;;;;4901581;29;20044;-89
2021/01/18 11:23:54;;;;;;;16.08;6.90;;;6.90;83.30;;;;;;4911706;29;20066;-89
2021/01/18 11:26:20;;;;;;;16.85;6.97;;;6.90;83.30;;;;;;4904855;29;20455;-88
2021/01/18 11:28:46;;;;;;;16.38;6.40;;;7.00;83.30;;;;;;4932659;29;20055;-89
2021/01/18 11:31:13;;;;;;;16.00;6.82;;;7.00;83.30;;;;;;4885305;29;20044;-88
2021/01/18 11:33:38;;;;;;;14.68;6.85;;;7.00;83.30;;;;;;4903111;29;20032;-89
2021/01/18 11:36:04;;;;;;;15.85;6.78;;;7.10;83.40;;;;;;4920423;29;20110;-87
2021/01/18 11:38:30;;;;;;;18.00;7.70;;;7.10;83.30;;;;;;4936716;29;20028;-89
2021/01/18 11:40:56;;;;;;;14.35;7.00;;;7.10;83.20;;;;;;4937123;29;20385;-91
2021/01/18 11:43:21;;;;;;;18.60;7.65;;;7.20;83.20;;;;;;4920277;29;20090;-86
2021/01/18 11:45:47;;;;;;;17.90;7.93;;;7.20;83.20;;;;;;4920281;29;20119;-91
2021/01/18 11:48:13;;;;;;;18.02;7.60;;;7.20;83.10;;;;;;4904387;29;20043;-87
2021/01/18 11:50:38;;;;;;;15.55;6.32;;;7.30;83.10;;;;;;4905040;29;20036;-89
2021/01/18 11:53:04;;;;;;;18.58;8.27;;;7.30;83.10;;;;;;4889220;29;20040;-89
2021/01/18 11:55:30;;;;;;;18.58;7.93;;;7.30;83.00;;;;;;4885498;29;20043;-90
2021/01/18 11:57:56;;;;;;;16.58;7.38;;;7.40;83.00;;;;;;4901239;29;20040;-88
2021/01/18 12:00:25;;;;;;;14.82;6.93;;;7.40;82.90;;;;;;4901085;29;20035;-87
2021/01/18 12:03:01;;;;;;;18.45;7.30;;;7.40;82.80;;;;;;4900989;29;20071;-89
2021/01/18 12:05:30;;;;;;;14.05;6.55;;;7.40;82.70;;;;;;4900732;29;20044;-87
2021/01/18 12:07:57;;;;;;;18.08;7.13;;;7.50;82.80;;;;;;4885734;29;20047;-90
2021/01/18 12:10:26;;;;;;;13.30;6.65;;;7.50;82.70;;;;;;4900721;29;20487;-90
2021/01/18 12:12:51;;;;;;;;;;;7.60;82.60;;;;;;4901690;29;20045;-90
2021/01/18 12:15:18;;;;;;;17.25;6.35;;;7.60;82.50;;;;;;4903113;29;20021;-92
2021/01/18 12:17:44;;;;;;;15.75;6.40;;;7.60;82.50;;;;;;4904614;29;20035;-89
2021/01/18 12:20:13;;;;;;;16.45;6.82;;;7.60;82.50;;;;;;4900900;29;20048;-92
2021/01/18 12:22:39;;;;;;;11.02;5.63;;;7.70;82.30;;;;;;4917891;29;20040;-93
2021/01/18 12:25:06;;;;;;;16.15;6.15;;;7.70;82.30;;;;;;4919893;29;20493;-91
2021/01/18 12:27:32;;;;;;;14.65;5.60;;;7.70;82.20;;;;;;4911332;29;20044;-90
2021/01/18 12:29:58;;;;;;;17.17;5.57;;;7.80;82.10;;;;;;4888553;29;20428;-88
2021/01/18 12:32:24;;;;;;;14.85;6.10;;;7.80;82.10;;;;;;4908547;29;20110;-89
2021/01/18 12:34:50;;;;;;;15.70;6.10;;;7.80;81.90;;;;;;4900449;29;20068;-90
2021/01/18 12:37:16;;;;;;;17.80;7.05;;;7.90;82.00;;;;;;4884575;29;20044;-88
2021/01/18 12:39:41;;;;;;;15.55;5.30;;;7.90;81.90;;;;;;4900221;29;20475;-89
2021/01/18 12:42:07;;;;;;;15.05;5.45;;;7.90;81.80;;;;;;4900490;29;20475;-89
2021/01/18 12:44:33;;;;;;;17.38;6.82;;;7.90;81.70;;;;;;4916962;29;20028;-88
2021/01/18 12:47:05;;;;;;;16.92;6.30;;;7.90;81.50;;;;;;4896223;29;20048;-88
2021/01/18 12:49:32;;;;;;;12.48;5.15;;;8.00;81.40;;;;;;4899556;29;20123;-89
2021/01/18 12:51:58;;;;;;;15.05;5.40;;;8.00;81.40;;;;;;4900282;29;20040;-86
2021/01/18 12:54:24;;;;;;;14.98;6.40;;;8.00;81.30;;;;;;4884061;29;20043;-85
2021/01/18 12:56:52;;;;;;;12.90;5.15;;;8.00;81.20;;;;;;4916448;29;20079;-87
2021/01/18 12:59:18;;;;;;;17.05;5.45;;;8.00;81.30;;;;;;4900344;29;20063;-86
2021/01/18 13:01:44;;;;;;;11.18;5.00;;;8.10;81.20;;;;;;4899630;29;20059;-87
2021/01/18 13:04:11;;;;;;;14.73;5.47;;;8.10;81.10;;;;;;4915073;29;20033;-87